Time;durP1;ratioP1;P1;durP2;ratioP2;P2;SDS_P1;SDS_P2;PMS_P1;PMS_P2;Temp;Humidity;BMP_temperature;BMP_pressure;BME280_temperature;BME280_humidity;BME280_pressure;Samples;Min_cycle;Max_cycle;Signal;HPM_P1;HPM_P2
2021/11/09 00:00:08;;;;;;;;;;;5.90;99.90;;;;;;5073054;28;19960;-73
2021/11/09 00:02:34;;;;;;;;;;;5.90;99.90;;;;;;5074407;28;19994;-73
2021/11/09 00:07:33;;;;;;;;;;;5.80;99.90;;;;;;5068389;28;19913;-73
2021/11/09 00:10:07;;;;;;;;;;;5.80;99.90;;;;;;5072209;28;20330;-73
2021/11/09 00:12:43;;;;;;;;;;;5.70;99.90;;;;;;5067874;28;19919;-74
2021/11/09 00:15:11;;;;;;;;;;;5.70;99.90;;;;;;5075455;28;20003;-74
2021/11/09 00:17:37;;;;;;;;;;;5.70;99.90;;;;;;5072035;28;19923;-74
2021/11/09 00:20:04;;;;;;;;;;;5.70;99.90;;;;;;5073227;28;19920;-74
2021/11/09 00:22:31;;;;;;;;;;;5.80;99.90;;;;;;5072456;28;19924;-74
2021/11/09 00:24:56;;;;;;;;;;;5.80;99.90;;;;;;5071727;28;19919;-74
2021/11/09 00:27:22;;;;;;;;;;;5.80;99.90;;;;;;5072385;28;19916;-76
2021/11/09 00:29:48;;;;;;;;;;;5.70;99.90;;;;;;5073313;28;19920;-74
2021/11/09 00:32:15;;;;;;;;;;;5.70;99.90;;;;;;5072908;28;19956;-74
2021/11/09 00:34:41;;;;;;;;;;;5.70;99.90;;;;;;5071714;28;19939;-73
2021/11/09 00:37:07;;;;;;;;;;;5.70;99.90;;;;;;5073244;28;19920;-73
2021/11/09 00:39:33;;;;;;;;;;;5.70;99.90;;;;;;5072208;28;19921;-73
2021/11/09 00:41:59;;;;;;;;;;;5.70;99.90;;;;;;5065240;28;19913;-73
2021/11/09 00:44:24;;;;;;;;;;;5.70;99.90;;;;;;5074755;28;19919;-73
2021/11/09 00:46:50;;;;;;;;;;;5.70;99.90;;;;;;5076686;28;19920;-73
2021/11/09 00:49:16;;;;;;;;;;;5.70;99.90;;;;;;5073387;28;19935;-73
2021/11/09 00:51:44;;;;;;;;;;;5.70;99.90;;;;;;5075914;28;19916;-74
2021/11/09 00:54:10;;;;;;;;;;;5.60;99.90;;;;;;5072977;28;19934;-73
2021/11/09 00:56:35;;;;;;;;;;;5.70;99.90;;;;;;5072716;28;19978;-73
2021/11/09 00:59:01;;;;;;;;;;;5.60;99.90;;;;;;5070707;28;19923;-73
2021/11/09 01:01:26;;;;;;;;;;;5.50;99.90;;;;;;5072354;28;19919;-74
2021/11/09 01:03:52;;;;;;;;;;;5.50;99.90;;;;;;5071866;28;19920;-73
2021/11/09 01:06:18;;;;;;;;;;;5.50;99.90;;;;;;5072769;28;19967;-73
2021/11/09 01:08:44;;;;;;;;;;;5.40;99.90;;;;;;5073318;28;19916;-73
2021/11/09 01:11:09;;;;;;;;;;;5.40;99.90;;;;;;5073067;28;20314;-74
2021/11/09 01:13:35;;;;;;;;;;;5.30;99.90;;;;;;5070923;28;20019;-73
2021/11/09 01:16:00;;;;;;;;;;;5.30;99.90;;;;;;5068165;28;19924;-73
2021/11/09 01:18:30;;;;;;;;;;;5.30;99.90;;;;;;5071793;28;19925;-73
2021/11/09 01:20:56;;;;;;;;;;;5.30;99.90;;;;;;5072070;28;19962;-73
2021/11/09 01:23:22;;;;;;;;;;;5.30;99.90;;;;;;5074221;28;19916;-73
2021/11/09 01:25:49;;;;;;;;;;;5.20;99.90;;;;;;5073697;28;19916;-73
2021/11/09 01:28:14;;;;;;;;;;;5.20;99.90;;;;;;5074511;28;19938;-74
2021/11/09 01:30:41;;;;;;;;;;;5.20;99.90;;;;;;5071716;28;20006;-73
2021/11/09 01:33:07;;;;;;;;;;;5.20;99.90;;;;;;5073857;28;19947;-74
2021/11/09 01:35:33;;;;;;;;;;;5.20;99.90;;;;;;5068320;28;19955;-74
2021/11/09 01:37:58;;;;;;;;;;;5.10;99.90;;;;;;5076989;28;19924;-73
2021/11/09 01:40:24;;;;;;;;;;;5.10;99.90;;;;;;5073217;28;19990;-73
2021/11/09 01:42:51;;;;;;;;;;;5.20;99.90;;;;;;5067572;28;19998;-74
2021/11/09 01:45:18;;;;;;;;;;;5.10;99.90;;;;;;5081795;28;20524;-73
2021/11/09 01:47:44;;;;;;;;;;;5.10;99.90;;;;;;5059127;28;19970;-73
2021/11/09 01:50:10;;;;;;;;;;;5.10;99.90;;;;;;5075525;28;19916;-73
2021/11/09 01:52:36;;;;;;;;;;;5.10;99.90;;;;;;5076076;28;20322;-73
2021/11/09 01:55:04;;;;;;;;;;;5.10;99.90;;;;;;5081907;28;19951;-73
2021/11/09 01:57:29;;;;;;;;;;;5.00;99.90;;;;;;5074771;28;19923;-73
2021/11/09 01:59:58;;;;;;;;;;;5.10;99.90;;;;;;5062939;28;19921;-73
2021/11/09 02:02:24;;;;;;;;;;;5.10;99.90;;;;;;5070398;28;19920;-73
2021/11/09 02:04:49;;;;;;;;;;;5.10;99.90;;;;;;5069210;28;19920;-73
2021/11/09 02:07:15;;;;;;;;;;;5.00;99.90;;;;;;5069827;28;20314;-73
2021/11/09 02:09:40;;;;;;;;;;;5.00;99.90;;;;;;5065470;28;19916;-73
2021/11/09 02:12:06;;;;;;;;;;;5.00;99.90;;;;;;5063594;28;20006;-73
2021/11/09 02:14:32;;;;;;;;;;;4.90;99.90;;;;;;5070577;28;20500;-74
2021/11/09 02:16:58;;;;;;;;;;;4.90;99.90;;;;;;5073106;28;19912;-73
2021/11/09 02:19:24;;;;;;;;;;;4.90;99.90;;;;;;5070848;28;19916;-73
2021/11/09 02:21:50;;;;;;;;;;;4.90;99.90;;;;;;5068090;28;19956;-73
2021/11/09 02:24:15;;;;;;;;;;;4.90;99.90;;;;;;5066036;28;19959;-73
2021/11/09 02:26:41;;;;;;;;;;;5.00;99.90;;;;;;5069831;28;19965;-73
2021/11/09 02:29:08;;;;;;;;;;;5.00;99.90;;;;;;5072180;28;19913;-73
2021/11/09 02:31:34;;;;;;;;;;;5.00;99.90;;;;;;5076716;28;19920;-73
2021/11/09 02:34:00;;;;;;;;;;;5.00;99.90;;;;;;5072727;28;19916;-73
2021/11/09 02:36:25;;;;;;;;;;;5.00;99.90;;;;;;5075110;28;19982;-73
2021/11/09 02:38:51;;;;;;;;;;;4.90;99.90;;;;;;5076614;28;20234;-73
2021/11/09 02:41:17;;;;;;;;;;;4.90;99.90;;;;;;5076587;28;20222;-73
2021/11/09 02:43:42;;;;;;;;;;;4.90;99.90;;;;;;5071130;28;19912;-73
2021/11/09 02:46:28;;;;;;;;;;;4.90;99.90;;;;;;5075785;28;20019;-73
2021/11/09 02:49:09;;;;;;;;;;;4.80;99.90;;;;;;5085102;28;20271;-73
2021/11/09 02:54:37;;;;;;;;;;;4.80;99.90;;;;;;5053537;28;20262;-74
2021/11/09 02:57:05;;;;;;;;;;;4.90;99.90;;;;;;5046542;28;19913;-74
2021/11/09 02:59:44;;;;;;;;;;;4.90;99.90;;;;;;5052978;28;19932;-73
2021/11/09 03:07:11;;;;;;;;;;;4.80;99.90;;;;;;5049442;28;19912;-73
2021/11/09 03:09:49;;;;;;;;;;;4.80;99.90;;;;;;5048282;28;20280;-73
2021/11/09 03:12:15;;;;;;;;;;;4.90;99.90;;;;;;5051630;28;19965;-73
2021/11/09 03:14:42;;;;;;;;;;;4.90;99.90;;;;;;5045912;28;19927;-73
2021/11/09 03:17:20;;;;;;;;;;;4.80;99.90;;;;;;5038764;28;19925;-73
2021/11/09 03:20:01;;;;;;;;;;;4.80;99.90;;;;;;5032436;28;19917;-73
2021/11/09 03:44:33;;;;;;;;;;;4.70;99.90;;;;;;5038462;28;20006;-73
2021/11/09 03:47:02;;;;;;;;;;;4.70;99.90;;;;;;5035893;28;19913;-73
2021/11/09 03:49:29;;;;;;;;;;;4.70;99.90;;;;;;5032471;28;19921;-73
2021/11/09 03:51:56;;;;;;;;;;;4.80;99.90;;;;;;5067532;28;19939;-73
2021/11/09 03:54:29;;;;;;;;;;;4.80;99.90;;;;;;5071387;28;19916;-73
2021/11/09 03:57:31;;;;;;;;;;;4.80;99.90;;;;;;5074319;28;20298;-73
2021/11/09 04:02:43;;;;;;;;;;;4.70;99.90;;;;;;5075540;28;19923;-74
2021/11/09 04:05:11;;;;;;;;;;;4.70;99.90;;;;;;5076075;28;19960;-73
2021/11/09 04:20:41;;;;;;;;;;;4.70;99.90;;;;;;5072962;28;19928;-73
2021/11/09 05:08:53;;;;;;;;;;;4.60;99.90;;;;;;5073420;28;19919;-73
2021/11/09 05:11:19;;;;;;;;;;;4.50;99.90;;;;;;5074955;28;20011;-73
2021/11/09 05:13:45;;;;;;;;;;;4.60;99.90;;;;;;5072565;28;20020;-73
2021/11/09 05:16:10;;;;;;;;;;;4.50;99.90;;;;;;5072751;28;19913;-73
2021/11/09 05:18:36;;;;;;;;;;;4.50;99.90;;;;;;5070693;28;19920;-73
2021/11/09 05:21:02;;;;;;;;;;;4.50;99.90;;;;;;5071381;28;20449;-73
2021/11/09 05:23:28;;;;;;;;;;;4.50;99.90;;;;;;5068500;28;19913;-74
2021/11/09 05:25:54;;;;;;;;;;;4.50;99.90;;;;;;5071937;28;19927;-73
2021/11/09 05:28:20;;;;;;;;;;;4.40;99.90;;;;;;5073447;28;19917;-73
2021/11/09 05:30:48;;;;;;;;;;;4.50;99.90;;;;;;5073167;28;19920;-74
2021/11/09 05:33:15;;;;;;;;;;;4.50;99.90;;;;;;5071648;28;20058;-74
2021/11/09 05:35:40;;;;;;;;;;;4.50;99.90;;;;;;5073058;28;20318;-74
2021/11/09 05:38:06;;;;;;;;;;;4.50;99.90;;;;;;5073019;28;19920;-73
2021/11/09 05:40:36;;;;;;;;;;;4.40;99.90;;;;;;5073583;28;19917;-73
2021/11/09 05:43:02;;;;;;;;;;;4.50;99.90;;;;;;5071827;28;20304;-74
2021/11/09 05:45:28;;;;;;;;;;;4.50;99.90;;;;;;5071501;28;19912;-74
2021/11/09 05:47:54;;;;;;;;;;;4.50;99.90;;;;;;5073118;28;19920;-73
2021/11/09 05:50:20;;;;;;;;;;;4.50;99.90;;;;;;5073073;28;19920;-73
2021/11/09 05:52:46;;;;;;;;;;;4.40;99.90;;;;;;5072372;28;19917;-73
2021/11/09 05:55:12;;;;;;;;;;;4.50;99.90;;;;;;5072036;28;20249;-73
2021/11/09 05:57:37;;;;;;;;;;;4.50;99.90;;;;;;5071515;28;20321;-74
2021/11/09 06:00:04;;;;;;;;;;;4.50;99.90;;;;;;5072495;28;19916;-74
2021/11/09 06:02:30;;;;;;;;;;;4.50;99.90;;;;;;5071191;28;19920;-73
2021/11/09 06:04:56;;;;;;;;;;;4.50;99.90;;;;;;5071809;28;20314;-73
2021/11/09 06:07:21;;;;;;;;;;;4.60;99.90;;;;;;5073391;28;19912;-73
2021/11/09 06:09:47;;;;;;;;;;;4.60;99.90;;;;;;5073624;28;19920;-73
2021/11/09 06:12:12;;;;;;;;;;;4.70;99.90;;;;;;5074828;28;19928;-73
2021/11/09 06:14:38;;;;;;;;;;;4.70;99.90;;;;;;5073899;28;19912;-73
2021/11/09 06:17:04;;;;;;;;;;;4.80;99.90;;;;;;5071166;28;19913;-73
2021/11/09 06:19:29;;;;;;;;;;;4.90;99.90;;;;;;5070732;28;19923;-73
2021/11/09 06:21:55;;;;;;;;;;;5.00;99.90;;;;;;5072781;28;19921;-73
2021/11/09 06:24:22;;;;;;;;;;;5.10;99.90;;;;;;5071480;28;19936;-73
2021/11/09 06:26:48;;;;;;;;;;;5.10;99.90;;;;;;5084923;28;20183;-73
2021/11/09 06:29:13;;;;;;;;;;;5.30;99.90;;;;;;5072587;28;19920;-74
2021/11/09 06:31:40;;;;;;;;;;;5.30;99.90;;;;;;5071980;28;19938;-74
2021/11/09 06:34:05;;;;;;;;;;;5.40;99.90;;;;;;5071391;28;19939;-73
2021/11/09 06:36:31;;;;;;;;;;;5.50;99.90;;;;;;5070845;28;19917;-74
2021/11/09 06:38:57;;;;;;;;;;;5.60;99.90;;;;;;5072291;28;19924;-73
2021/11/09 06:41:22;;;;;;;;;;;5.70;99.90;;;;;;5073123;28;19927;-73
2021/11/09 06:43:48;;;;;;;;;;;5.80;99.90;;;;;;5072513;28;20209;-73
2021/11/09 06:46:13;;;;;;;;;;;5.80;99.90;;;;;;5071727;28;20311;-73
2021/11/09 06:48:40;;;;;;;;;;;5.80;99.90;;;;;;5071446;28;19920;-74
2021/11/09 06:51:06;;;;;;;;;;;5.90;99.90;;;;;;5071956;28;20001;-74
2021/11/09 06:53:31;;;;;;;;;;;5.90;99.90;;;;;;5068896;28;20010;-73
2021/11/09 06:55:57;;;;;;;;;;;5.90;99.90;;;;;;5072872;28;20026;-73
2021/11/09 06:58:23;;;;;;;;;;;6.00;99.90;;;;;;5073594;28;19912;-73
2021/11/09 07:00:48;;;;;;;;;;;6.10;99.90;;;;;;5073181;28;19916;-73
2021/11/09 07:03:14;;;;;;;;;;;6.10;99.90;;;;;;5074324;28;20192;-73
2021/11/09 07:05:40;;;;;;;;;;;6.20;99.90;;;;;;5075055;28;19936;-73
2021/11/09 07:08:05;;;;;;;;;;;6.20;99.90;;;;;;5072271;28;20018;-73
2021/11/09 07:10:31;;;;;;;;;;;6.30;99.90;;;;;;5084905;28;20415;-73
2021/11/09 07:12:56;;;;;;;;;;;6.30;99.90;;;;;;5074732;28;19958;-73
2021/11/09 07:15:22;;;;;;;;;;;6.30;99.90;;;;;;5075722;28;19920;-74
2021/11/09 07:17:48;;;;;;;;;;;6.40;99.90;;;;;;5080418;28;19923;-73
2021/11/09 07:20:19;;;;;;;;;;;6.40;99.90;;;;;;5073435;28;19923;-73
2021/11/09 07:22:45;;;;;;;;;;;6.40;99.90;;;;;;5075999;28;19923;-73
2021/11/09 07:25:11;;;;;;;;;;;6.50;99.90;;;;;;5065419;28;20007;-73
2021/11/09 07:27:37;;;;;;;;;;;6.50;99.90;;;;;;5075033;28;19916;-74
2021/11/09 07:30:04;;;;;;;;;;;6.50;99.90;;;;;;5073108;28;19923;-74
2021/11/09 07:32:29;;;;;;;;;;;6.60;99.90;;;;;;5076266;28;20063;-74
2021/11/09 07:34:55;;;;;;;;;;;6.60;99.90;;;;;;5075912;28;19920;-74
2021/11/09 07:37:22;;;;;;;;;;;6.60;99.90;;;;;;5075231;28;19924;-74
2021/11/09 07:39:48;;;;;;;;;;;6.70;99.90;;;;;;5075309;28;20424;-74
2021/11/09 07:42:14;;;;;;;;;;;6.70;99.90;;;;;;5071201;28;19986;-75
2021/11/09 07:44:40;;;;;;;;;;;6.70;99.90;;;;;;5088753;28;19916;-74
2021/11/09 07:47:05;;;;;;;;;;;6.70;99.90;;;;;;5072403;28;20291;-75
2021/11/09 07:49:31;;;;;;;;;;;6.70;99.90;;;;;;5073600;28;19995;-74
2021/11/09 07:51:57;;;;;;;;;;;6.80;99.90;;;;;;5072521;28;19916;-74
2021/11/09 07:54:27;;;;;;;;;;;6.80;99.90;;;;;;5075602;28;20624;-74
2021/11/09 07:57:01;;;;;;;;;;;6.80;99.90;;;;;;5074792;28;19977;-74
2021/11/09 08:02:07;;;;;;;;;;;6.90;99.90;;;;;;5072056;28;19919;-75
2021/11/09 08:04:43;;;;;;;;;;;6.90;99.90;;;;;;5075440;28;19921;-74
2021/11/09 08:07:16;;;;;;;;;;;7.00;99.90;;;;;;5073877;28;20326;-74
2021/11/09 08:09:42;;;;;;;;;;;7.00;99.90;;;;;;5072174;28;20003;-74
2021/11/09 08:12:08;;;;;;;;;;;7.00;99.90;;;;;;5089072;28;19999;-74
2021/11/09 08:14:33;;;;;;;;;;;7.10;99.90;;;;;;5072598;28;19973;-74
2021/11/09 08:16:59;;;;;;;;;;;7.10;99.90;;;;;;5072683;28;19962;-74
2021/11/09 08:19:25;;;;;;;;;;;7.10;99.90;;;;;;5072965;28;19927;-75
2021/11/09 08:21:53;;;;;;;;;;;7.20;99.90;;;;;;5073362;28;19916;-74
2021/11/09 08:24:20;;;;;;;;;;;7.20;99.90;;;;;;5072638;28;19995;-74
2021/11/09 08:26:46;;;;;;;;;;;7.20;99.90;;;;;;5072196;28;19920;-74
2021/11/09 08:29:12;;;;;;;;;;;7.30;99.90;;;;;;5070944;28;19923;-75
2021/11/09 08:31:46;;;;;;;;;;;7.20;99.90;;;;;;5070943;28;19913;-74
2021/11/09 08:34:12;;;;;;;;;;;7.30;99.90;;;;;;5085719;28;19941;-75
2021/11/09 08:36:39;;;;;;;;;;;7.40;99.90;;;;;;5073425;28;19943;-75
2021/11/09 08:39:06;;;;;;;;;;;7.40;99.90;;;;;;5070905;28;20284;-75
2021/11/09 08:41:42;;;;;;;;;;;7.50;99.90;;;;;;5073506;28;19973;-75
2021/11/09 08:44:10;;;;;;;;;;;7.50;99.90;;;;;;5071756;28;19916;-75
2021/11/09 08:46:50;;;;;;;;;;;7.60;99.90;;;;;;5073204;28;19919;-75
2021/11/09 08:49:18;;;;;;;;;;;7.60;99.90;;;;;;5072967;28;19926;-75
2021/11/09 08:51:44;;;;;;;;;;;7.70;99.90;;;;;;5071696;28;19917;-75
2021/11/09 08:54:20;;;;;;;;;;;7.60;99.90;;;;;;5074040;28;20211;-75
2021/11/09 08:57:44;;;;;;;;;;;7.60;99.90;;;;;;5069816;28;19983;-74
2021/11/09 09:05:05;;;;;;;;;;;7.80;99.90;;;;;;5070698;28;20093;-75
2021/11/09 09:07:32;;;;;;;;;;;7.80;99.90;;;;;;5070780;28;20011;-76
2021/11/09 09:09:58;;;;;;;;;;;7.90;99.90;;;;;;5067794;28;20030;-75
2021/11/09 09:12:24;;;;;;;;;;;8.00;99.90;;;;;;5068101;28;20366;-75
2021/11/09 09:14:51;;;;;;;;;;;8.00;99.90;;;;;;5068952;28;20269;-76
2021/11/09 09:17:17;;;;;;;;;;;8.00;99.90;;;;;;5070283;28;21071;-75
2021/11/09 09:19:49;;;;;;;;;;;8.00;99.90;;;;;;5069102;28;20010;-75
2021/11/09 09:22:16;;;;;;;;;;;8.10;99.90;;;;;;5067224;28;20039;-76
2021/11/09 09:56:55;;;;;;;;;;;8.60;99.90;;;;;;5068924;28;19956;-76
2021/11/09 09:59:28;;;;;;;;;;;8.60;99.90;;;;;;5067379;28;20333;-75
2021/11/09 10:02:08;;;;;;;;;;;8.70;99.90;;;;;;5069002;28;19920;-75
2021/11/09 10:04:36;;;;;;;;;;;8.60;99.90;;;;;;5068269;28;19969;-76
2021/11/09 10:07:03;;;;;;;;;;;8.70;99.90;;;;;;5070186;28;19970;-76
2021/11/09 10:09:33;;;;;;;;;;;8.80;99.90;;;;;;5069125;28;20233;-76
2021/11/09 10:12:20;;;;;;;;;;;8.80;99.90;;;;;;5067329;28;19924;-76
2021/11/09 10:14:47;;;;;;;;;;;8.80;99.90;;;;;;5069621;28;19921;-75
2021/11/09 10:17:15;;;;;;;;;;;8.80;99.90;;;;;;5069996;28;20302;-75
2021/11/09 10:19:41;;;;;;;;;;;8.80;99.90;;;;;;5068678;28;19921;-76
2021/11/09 10:22:21;;;;;;;;;;;8.80;99.90;;;;;;5070010;28;19912;-76
2021/11/09 10:25:01;;;;;;;;;;;8.90;99.90;;;;;;5068980;28;19912;-76
2021/11/09 10:27:28;;;;;;;;;;;8.90;99.90;;;;;;5069149;28;20355;-76
2021/11/09 10:29:55;;;;;;;;;;;8.90;99.90;;;;;;5068069;28;20219;-75
2021/11/09 10:32:25;;;;;;;;;;;9.00;99.90;;;;;;5069560;28;19928;-75
2021/11/09 10:35:04;;;;;;;;;;;9.10;99.90;;;;;;5071838;28;19955;-76
2021/11/09 10:37:33;;;;;;;;;;;9.20;99.90;;;;;;5072060;28;19916;-75
2021/11/09 10:40:05;;;;;;;;;;;9.30;99.90;;;;;;5072830;28;19970;-76
2021/11/09 10:42:31;;;;;;;;;;;9.30;99.90;;;;;;5071488;28;20268;-75
2021/11/09 10:44:59;;;;;;;;;;;9.40;99.90;;;;;;5072021;28;20231;-76
2021/11/09 10:47:29;;;;;;;;;;;9.40;99.90;;;;;;5072483;28;20329;-84
2021/11/09 10:49:59;;;;;;;;;;;9.40;99.90;;;;;;5087370;28;19920;-75
2021/11/09 10:52:28;;;;;;;;;;;9.40;99.90;;;;;;5072579;28;19921;-75
2021/11/09 10:55:13;;;;;;;;;;;9.40;99.90;;;;;;5087149;28;19924;-76
2021/11/09 11:00:46;;;;;;;;;;;9.40;99.90;;;;;;5072763;28;20012;-76
2021/11/09 11:06:11;;;;;;;;;;;9.50;99.90;;;;;;5069944;28;19932;-75
2021/11/09 11:08:37;;;;;;;;;;;9.50;99.90;;;;;;5073311;28;19927;-75
2021/11/09 11:11:15;;;;;;;;;;;9.50;99.90;;;;;;5070106;28;20291;-75
2021/11/09 11:13:40;;;;;;;;;;;9.60;99.90;;;;;;5073480;28;19920;-75
2021/11/09 11:16:08;;;;;;;;;;;9.60;99.90;;;;;;5071001;28;19920;-76
2021/11/09 11:18:35;;;;;;;;;;;9.60;99.90;;;;;;5069303;28;19952;-75
2021/11/09 11:21:00;;;;;;;;;;;9.70;99.90;;;;;;5070405;28;20005;-75
2021/11/09 11:23:27;;;;;;;;;;;9.80;99.90;;;;;;5069120;28;19929;-78
2021/11/09 11:25:52;;;;;;;;;;;9.80;99.90;;;;;;5070394;28;20307;-76
2021/11/09 11:28:18;;;;;;;;;;;9.80;99.90;;;;;;5068336;28;19920;-75
2021/11/09 11:30:44;;;;;;;;;;;9.80;99.90;;;;;;5071840;28;19925;-75
2021/11/09 11:33:10;;;;;;;;;;;9.80;99.90;;;;;;5070568;28;19966;-75
2021/11/09 11:35:36;;;;;;;;;;;9.80;99.90;;;;;;5070278;28;19955;-75
2021/11/09 11:38:02;;;;;;;;;;;9.90;99.90;;;;;;5071785;28;19931;-76
2021/11/09 11:40:28;;;;;;;;;;;9.90;99.90;;;;;;5070824;28;19925;-75
2021/11/09 11:42:54;;;;;;;;;;;9.90;99.90;;;;;;5069043;28;19973;-75
2021/11/09 11:45:19;;;;;;;;;;;9.80;99.90;;;;;;5070097;28;19925;-76
2021/11/09 11:48:05;;;;;;;;;;;9.80;99.90;;;;;;5070718;28;19924;-75
2021/11/09 11:50:37;;;;;;;;;;;9.90;99.90;;;;;;5068887;28;19921;-76
2021/11/09 11:53:03;;;;;;;;;;;9.80;99.90;;;;;;5070106;28;19912;-76
2021/11/09 11:55:29;;;;;;;;;;;9.80;99.90;;;;;;5070850;28;19920;-76
2021/11/09 11:58:01;;;;;;;;;;;9.80;99.90;;;;;;5071604;28;19924;-75
2021/11/09 12:00:45;;;;;;;;;;;9.90;99.90;;;;;;5084205;28;20304;-76
2021/11/09 12:03:23;;;;;;;;;;;9.90;99.90;;;;;;5071330;28;19920;-76
2021/11/09 12:05:50;;;;;;;;;;;10.00;99.90;;;;;;5071505;28;19921;-75
2021/11/09 12:08:36;;;;;;;;;;;10.00;99.90;;;;;;5065622;28;19990;-75
2021/11/09 12:11:02;;;;;;;;;;;10.00;99.90;;;;;;5065754;28;20003;-75
2021/11/09 12:13:28;;;;;;;;;;;10.00;99.90;;;;;;5071167;28;19931;-75
2021/11/09 12:15:56;;;;;;;;;;;10.00;99.90;;;;;;5084432;28;20362;-76
2021/11/09 12:18:28;;;;;;;;;;;10.10;99.90;;;;;;5068546;28;19920;-75
2021/11/09 12:20:54;;;;;;;;;;;10.10;99.90;;;;;;5069743;28;20391;-76
2021/11/09 12:23:23;;;;;;;;;;;10.10;99.90;;;;;;5068345;28;20273;-76
2021/11/09 12:25:49;;;;;;;;;;;10.10;99.90;;;;;;5069709;28;19920;-75
2021/11/09 12:28:20;;;;;;;;;;;10.20;99.90;;;;;;5069761;28;19926;-75
2021/11/09 12:30:50;;;;;;;;;;;10.10;99.90;;;;;;5070172;28;19924;-75
2021/11/09 12:33:17;;;;;;;;;;;10.20;99.90;;;;;;5069764;28;19943;-76
2021/11/09 12:35:44;;;;;;;;;;;10.20;99.90;;;;;;5085657;28;19920;-76
2021/11/09 12:38:12;;;;;;;;;;;10.20;99.90;;;;;;5070364;28;19974;-75
2021/11/09 12:40:44;;;;;;;;;;;10.20;99.90;;;;;;5069223;28;19946;-74
2021/11/09 12:43:09;;;;;;;;;;;10.20;99.90;;;;;;5070960;28;19912;-75
2021/11/09 12:45:36;;;;;;;;;;;10.20;99.90;;;;;;5070503;28;20281;-75
2021/11/09 12:48:03;;;;;;;;;;;10.20;99.90;;;;;;5067126;28;19970;-75
2021/11/09 12:50:29;;;;;;;;;;;10.20;99.90;;;;;;5070511;28;20319;-76
2021/11/09 12:53:05;;;;;;;;;;;10.20;99.90;;;;;;5070007;28;20317;-75
2021/11/09 12:55:31;;;;;;;;;;;10.20;99.90;;;;;;5083869;28;19930;-76
2021/11/09 12:58:12;;;;;;;;;;;10.20;99.90;;;;;;5085531;28;20035;-75
2021/11/09 13:00:41;;;;;;;;;;;10.20;99.90;;;;;;5071366;28;19982;-76
2021/11/09 13:03:21;;;;;;;;;;;10.30;99.90;;;;;;5069020;28;19994;-75
2021/11/09 13:05:55;;;;;;;;;;;10.30;99.90;;;;;;5072568;28;19920;-76
2021/11/09 13:08:29;;;;;;;;;;;10.30;99.90;;;;;;5070656;28;19921;-76
2021/11/09 13:10:55;;;;;;;;;;;10.30;99.90;;;;;;5069351;28;19919;-75
2021/11/09 13:13:21;;;;;;;;;;;10.40;99.90;;;;;;5068895;28;20313;-76
2021/11/09 13:15:47;;;;;;;;;;;10.40;99.90;;;;;;5068042;28;19987;-76
2021/11/09 13:18:12;;;;;;;;;;;10.40;99.90;;;;;;5083601;28;19913;-76
2021/11/09 13:20:48;;;;;;;;;;;10.40;99.90;;;;;;5070996;28;19917;-76
2021/11/09 13:23:16;;;;;;;;;;;10.40;99.90;;;;;;5070144;28;19928;-76
2021/11/09 13:25:46;;;;;;;;;;;10.40;99.90;;;;;;5068440;28;20295;-75
2021/11/09 13:28:13;;;;;;;;;;;10.40;99.90;;;;;;5068409;28;19920;-75
2021/11/09 13:30:40;;;;;;;;;;;10.50;99.90;;;;;;5070497;28;20227;-76
2021/11/09 13:33:07;;;;;;;;;;;10.50;99.90;;;;;;5068011;28;20269;-76
2021/11/09 13:35:34;;;;;;;;;;;10.50;99.90;;;;;;5068948;28;20526;-76
2021/11/09 13:38:08;;;;;;;;;;;10.50;99.90;;;;;;5068891;28;19932;-76
2021/11/09 13:40:38;;;;;;;;;;;10.50;99.90;;;;;;5061427;28;19928;-76
2021/11/09 13:43:05;;;;;;;;;;;10.50;99.90;;;;;;5065213;28;19966;-75
2021/11/09 13:45:32;;;;;;;;;;;10.50;99.90;;;;;;5068429;28;19952;-76
2021/11/09 13:47:58;;;;;;;;;;;10.50;99.90;;;;;;5068267;28;20042;-77
2021/11/09 13:50:25;;;;;;;;;;;10.50;99.90;;;;;;5068099;28;20031;-76
2021/11/09 13:52:52;;;;;;;;;;;10.50;99.90;;;;;;5069377;28;19959;-76
2021/11/09 13:55:20;;;;;;;;;;;10.50;99.90;;;;;;5068957;28;19919;-76
2021/11/09 13:57:47;;;;;;;;;;;10.50;99.90;;;;;;5083709;28;19913;-76
2021/11/09 14:00:18;;;;;;;;;;;10.50;99.90;;;;;;5069304;28;19917;-75
2021/11/09 14:02:54;;;;;;;;;;;10.50;99.90;;;;;;5069178;28;19931;-76
2021/11/09 14:08:29;;;;;;;;;;;10.50;99.90;;;;;;5072584;28;19928;-76
2021/11/09 14:13:57;;;;;;;;;;;10.60;99.90;;;;;;5072855;28;20311;-77
2021/11/09 14:16:37;;;;;;;;;;;10.60;99.90;;;;;;5071393;28;19938;-76
2021/11/09 14:19:03;;;;;;;;;;;10.60;99.90;;;;;;5087283;28;19916;-75
2021/11/09 14:21:30;;;;;;;;;;;10.60;99.90;;;;;;5070920;28;20554;-76
2021/11/09 14:23:55;;;;;;;;;;;10.60;99.90;;;;;;5071925;28;19920;-75
2021/11/09 14:26:22;;;;;;;;;;;10.60;99.90;;;;;;5073068;28;20226;-76
2021/11/09 14:28:49;;;;;;;;;;;10.60;99.90;;;;;;5072886;28;19986;-76
2021/11/09 14:31:26;;;;;;;;;;;10.60;99.90;;;;;;5073384;28;20016;-76
2021/11/09 14:33:54;;;;;;;;;;;10.60;99.90;;;;;;5073047;28;20011;-76
2021/11/09 14:36:27;;;;;;;;;;;10.70;99.90;;;;;;5073713;28;19942;-75
2021/11/09 14:39:27;;;;;;;;;;;10.60;99.90;;;;;;5073432;28;19924;-75
2021/11/09 14:42:10;;;;;;;;;;;10.70;99.90;;;;;;5069210;28;19928;-75
2021/11/09 14:44:55;;;;;;;;;;;10.70;99.90;;;;;;5052475;28;19931;-83
2021/11/09 14:47:21;;;;;;;;;;;10.70;99.90;;;;;;5069031;28;19996;-76
2021/11/09 14:49:57;;;;;;;;;;;10.60;99.90;;;;;;5067694;28;19920;-76
2021/11/09 14:52:28;;;;;;;;;;;10.60;99.90;;;;;;5050666;28;20295;-76
2021/11/09 14:55:13;;;;;;;;;;;10.60;99.90;;;;;;5067308;28;19921;-75
2021/11/09 14:57:41;;;;;;;;;;;10.60;99.90;;;;;;5067406;28;19958;-76
2021/11/09 15:00:07;;;;;;;;;;;10.60;99.90;;;;;;5067652;28;19935;-76
2021/11/09 15:02:32;;;;;;;;;;;10.60;99.90;;;;;;5066046;28;19912;-76
2021/11/09 15:04:58;;;;;;;;;;;10.60;99.90;;;;;;5069361;28;19912;-77
2021/11/09 15:07:29;;;;;;;;;;;10.60;99.90;;;;;;5068386;28;20003;-77
2021/11/09 15:26:43;;;;;;;;;;;10.50;99.90;;;;;;5073490;28;20511;-76
2021/11/09 15:34:20;;;;;;;;;;;10.50;99.90;;;;;;5073021;28;20016;-76
2021/11/09 15:36:56;;;;;;;;;;;10.50;99.90;;;;;;5071160;28;19978;-77
2021/11/09 15:39:25;;;;;;;;;;;10.50;99.90;;;;;;5070121;28;20314;-76
2021/11/09 15:41:52;;;;;;;;;;;10.50;99.90;;;;;;5071410;28;20597;-75
2021/11/09 15:44:18;;;;;;;;;;;10.50;99.90;;;;;;5071349;28;19912;-77
2021/11/09 15:46:45;;;;;;;;;;;10.50;99.90;;;;;;5072490;28;19920;-76
2021/11/09 15:49:10;;;;;;;;;;;10.50;99.90;;;;;;5071111;28;19924;-75
2021/11/09 15:51:37;;;;;;;;;;;10.50;99.90;;;;;;5071788;28;19920;-76
2021/11/09 15:54:04;;;;;;;;;;;10.50;99.90;;;;;;5071128;28;19912;-76
2021/11/09 15:56:30;;;;;;;;;;;10.50;99.90;;;;;;5070962;28;19927;-76
2021/11/09 15:58:56;;;;;;;;;;;10.50;99.90;;;;;;5070125;28;19921;-77
2021/11/09 16:01:23;;;;;;;;;;;10.40;99.90;;;;;;5069822;28;19974;-76
2021/11/09 16:03:49;;;;;;;;;;;10.40;99.90;;;;;;5072351;28;19989;-76
2021/11/09 16:06:19;;;;;;;;;;;10.40;99.90;;;;;;5072873;28;19932;-76
2021/11/09 16:08:44;;;;;;;;;;;10.30;99.90;;;;;;5073692;28;20104;-77
2021/11/09 16:11:12;;;;;;;;;;;10.30;99.90;;;;;;5071670;28;20318;-75
2021/11/09 16:13:39;;;;;;;;;;;10.30;99.90;;;;;;5071545;28;19912;-76
2021/11/09 16:16:05;;;;;;;;;;;10.30;99.90;;;;;;5070258;28;19955;-76
2021/11/09 16:18:30;;;;;;;;;;;10.30;99.90;;;;;;5072677;28;20272;-76
2021/11/09 16:20:56;;;;;;;;;;;10.30;99.90;;;;;;5067921;28;19994;-77
2021/11/09 16:23:22;;;;;;;;;;;10.30;99.90;;;;;;5072091;28;19924;-76
2021/11/09 16:25:48;;;;;;;;;;;10.20;99.90;;;;;;5072328;28;19921;-76
2021/11/09 16:28:15;;;;;;;;;;;10.20;99.90;;;;;;5070928;28;20023;-76
2021/11/09 16:30:42;;;;;;;;;;;10.30;99.90;;;;;;5069464;28;19912;-76
2021/11/09 16:33:16;;;;;;;;;;;10.30;99.90;;;;;;5066891;28;19916;-76
2021/11/09 16:38:14;;;;;;;;;;;10.20;99.90;;;;;;5068601;28;19944;-77
2021/11/09 16:40:42;;;;;;;;;;;10.30;99.90;;;;;;5065964;28;20569;-76
2021/11/09 16:43:14;;;;;;;;;;;10.30;99.90;;;;;;5071415;28;19913;-77
2021/11/09 16:45:54;;;;;;;;;;;10.30;99.90;;;;;;5071339;28;20215;-76
2021/11/09 16:48:21;;;;;;;;;;;10.30;99.90;;;;;;5070731;28;19921;-75
2021/11/09 16:51:01;;;;;;;;;;;10.30;99.90;;;;;;5067774;28;19912;-77
2021/11/09 16:53:28;;;;;;;;;;;10.30;99.90;;;;;;5067494;28;19917;-76
2021/11/09 17:01:41;;;;;;;;;;;10.20;99.90;;;;;;5063023;28;19991;-76
2021/11/09 17:07:19;;;;;;;;;;;10.20;99.90;;;;;;5063732;28;19916;-77
2021/11/09 18:20:10;;;;;;;;;;;10.00;99.90;;;;;;5071715;28;19973;-76
2021/11/09 18:22:46;;;;;;;;;;;10.10;99.90;;;;;;5069440;28;19994;-77
2021/11/09 18:25:12;;;;;;;;;;;10.00;99.90;;;;;;5066897;28;20355;-77
2021/11/09 18:27:39;;;;;;;;;;;10.00;99.90;;;;;;5070166;28;20321;-76
2021/11/09 18:30:06;;;;;;;;;;;10.00;99.90;;;;;;5068344;28;20042;-77
2021/11/09 18:32:32;;;;;;;;;;;10.00;99.90;;;;;;5069754;28;20393;-75
2021/11/09 18:34:58;;;;;;;;;;;10.00;99.90;;;;;;5068836;28;19913;-78
2021/11/09 18:37:24;;;;;;;;;;;9.90;99.90;;;;;;5069948;28;20906;-76
2021/11/09 18:39:50;;;;;;;;;;;9.90;99.90;;;;;;5081018;28;19916;-76
2021/11/09 18:42:17;;;;;;;;;;;9.90;99.90;;;;;;5070162;28;19927;-78